Panagia — V2OQ5 — position and weather

sailwx.info

Track history (hours):
 
Tides and Currents Weather Stations Pressure Air Temp Water Temp Dewpoint Dewpoint Depression Visibility Wind Speed Wind Dir Waves Ship Positions

Panagia

Last reported at 2016-Jul-22 20:07 UTC. Time now 2016-Aug-27 13:21 UTC.
Position N 36°09' E 014°44'.
Warning: this ship's position is 35 days out of date.

Length 120 m; draft 6.9 m.

Type: Cargo ship. MMSI: 304610000.

Date/timePositionNaut miles runAvg speedWind from/ knotsBaromVisibWave heightAir tempDewpointWater temp
2016-Jul-22 20:07N 36°09' E 014°44'814.0
2016-Jul-22 19:34N 36°12' E 014°35'1414.2
2016-Jul-22 18:33N 36°17' E 014°18'1414.4
2016-Jul-22 17:33N 36°22' E 014°02'1414.4
2016-Jul-22 16:33N 36°28' E 013°46'1414.1
2016-Jul-22 15:34N 36°34' E 013°30'1414.3
2016-Jul-22 14:33N 36°39' E 013°13'1414.4
2016-Jul-22 13:33N 36°45' E 012°57'2014.0
2016-Jul-22 12:09N 36°53' E 012°34'814.2
2016-Jul-22 11:33N 36°56' E 012°25'46913.3
2016-Jul-21 00:23N 36°60' E 002°38'2613.1
2016-Jul-20 22:24N 36°55' E 002°06'36113.4
2016-Jul-19 19:33N 36°05' W 005°18'1 0.1
2016-Jul-19 11:30N 36°04' W 005°19'1 1.2
2016-Jul-19 10:33N 36°03' W 005°20'1 1.3
2016-Jul-19 09:33N 36°04' W 005°22'5 5.1
2016-Jul-19 08:33N 35°59' W 005°24'36913.1
2016-Jul-18 04:21N 37°05' W 012°55'45613.5
2016-Jul-16 18:33N 37°51' W 022°26'1313.3
2016-Jul-16 17:34N 37°52' W 022°43'1313.5
2016-Jul-16 16:34N 37°52' W 022°60'4713.8
2016-Jul-16 13:09N 37°55' W 023°59'813.9
2016-Jul-16 12:34N 37°56' W 024°10'1413.9
2016-Jul-16 11:33N 37°56' W 024°27'1414.0
2016-Jul-16 10:33N 37°57' W 024°45'1414.1
2016-Jul-16 09:33N 37°58' W 025°03'1413.6
2016-Jul-16 08:33N 37°59' W 025°20'1414.2
2016-Jul-16 07:34N 37°60' W 025°38'1413.9
2016-Jul-16 06:33N 37°60' W 025°56'2713.5
2016-Jul-16 04:33N 37°58' W 026°30'1414.1
2016-Jul-16 03:33N 37°58' W 026°48'1413.7
2016-Jul-16 02:33N 37°57' W 027°05'1414.0
2016-Jul-16 01:33N 37°56' W 027°23'1413.8
2016-Jul-16 00:34N 37°56' W 027°40'1413.7
2016-Jul-15 23:34N 37°55' W 027°57'1413.6
2016-Jul-15 22:33N 37°54' W 028°15'1413.7
2016-Jul-15 21:33N 37°53' W 028°32'1413.8
2016-Jul-15 20:33N 37°53' W 028°49'1414.0
2016-Jul-15 19:33N 37°52' W 029°07'1414.0
2016-Jul-15 18:33N 37°51' W 029°25'1414.4
2016-Jul-15 17:33N 37°51' W 029°43'  
Track history (hours):
 
Tides and Currents Weather Stations Pressure Air Temp Water Temp Dewpoint Dewpoint Depression Visibility Wind Speed Wind Dir Waves Ship Positions

Panagia

Last reported at 2016-Jul-22 20:07 UTC. Time now 2016-Aug-27 13:21 UTC.
Position N 36°09' E 014°44'.
Warning: this ship's position is 35 days out of date.

Length 120 m; draft 6.9 m.

Type: Cargo ship. MMSI: 304610000.

Date/timePositionNaut miles runAvg speedWind from/ knotsBaromVisibWave heightAir tempDewpointWater temp
2016-Jul-22 20:07N 36°09' E 014°44'814.0
2016-Jul-22 19:34N 36°12' E 014°35'1414.2
2016-Jul-22 18:33N 36°17' E 014°18'1414.4
2016-Jul-22 17:33N 36°22' E 014°02'1414.4
2016-Jul-22 16:33N 36°28' E 013°46'1414.1
2016-Jul-22 15:34N 36°34' E 013°30'1414.3
2016-Jul-22 14:33N 36°39' E 013°13'1414.4
2016-Jul-22 13:33N 36°45' E 012°57'2014.0
2016-Jul-22 12:09N 36°53' E 012°34'814.2
2016-Jul-22 11:33N 36°56' E 012°25'46913.3
2016-Jul-21 00:23N 36°60' E 002°38'2613.1
2016-Jul-20 22:24N 36°55' E 002°06'36113.4
2016-Jul-19 19:33N 36°05' W 005°18'1 0.1
2016-Jul-19 11:30N 36°04' W 005°19'1 1.2
2016-Jul-19 10:33N 36°03' W 005°20'1 1.3
2016-Jul-19 09:33N 36°04' W 005°22'5 5.1
2016-Jul-19 08:33N 35°59' W 005°24'36913.1
2016-Jul-18 04:21N 37°05' W 012°55'45613.5
2016-Jul-16 18:33N 37°51' W 022°26'1313.3
2016-Jul-16 17:34N 37°52' W 022°43'1313.5
2016-Jul-16 16:34N 37°52' W 022°60'4713.8
2016-Jul-16 13:09N 37°55' W 023°59'813.9
2016-Jul-16 12:34N 37°56' W 024°10'1413.9
2016-Jul-16 11:33N 37°56' W 024°27'1414.0
2016-Jul-16 10:33N 37°57' W 024°45'1414.1
2016-Jul-16 09:33N 37°58' W 025°03'1413.6
2016-Jul-16 08:33N 37°59' W 025°20'1414.2
2016-Jul-16 07:34N 37°60' W 025°38'1413.9
2016-Jul-16 06:33N 37°60' W 025°56'2713.5
2016-Jul-16 04:33N 37°58' W 026°30'1414.1
2016-Jul-16 03:33N 37°58' W 026°48'1413.7
2016-Jul-16 02:33N 37°57' W 027°05'1414.0
2016-Jul-16 01:33N 37°56' W 027°23'1413.8
2016-Jul-16 00:34N 37°56' W 027°40'1413.7
2016-Jul-15 23:34N 37°55' W 027°57'1413.6
2016-Jul-15 22:33N 37°54' W 028°15'1413.7
2016-Jul-15 21:33N 37°53' W 028°32'1413.8
2016-Jul-15 20:33N 37°53' W 028°49'1414.0
2016-Jul-15 19:33N 37°52' W 029°07'1414.0
2016-Jul-15 18:33N 37°51' W 029°25'1414.4
2016-Jul-15 17:33N 37°51' W 029°43'  

Dump ship's entire track history